Time;durP1;ratioP1;P1;durP2;ratioP2;P2;SDS_P1;SDS_P2;PMS_P1;PMS_P2;Temp;Humidity;BMP_temperature;BMP_pressure;BME280_temperature;BME280_humidity;BME280_pressure;Samples;Min_cycle;Max_cycle;Signal;HPM_P1;HPM_P2
2022/04/16 00:00:18;;;;;;;0.27;0.27;;;9.20;99.90;;;;;;5008801;28;20183;-82
2022/04/16 00:02:47;;;;;;;0.10;0.10;;;9.20;99.90;;;;;;5002896;28;20261;-82
2022/04/16 00:05:14;;;;;;;0.10;0.10;;;9.20;99.90;;;;;;5000040;28;20248;-82
2022/04/16 00:07:40;;;;;;;0.20;0.20;;;9.20;99.90;;;;;;5001251;28;20702;-82
2022/04/16 00:10:07;;;;;;;0.27;0.27;;;9.20;99.90;;;;;;5008309;28;20306;-82
2022/04/16 00:12:33;;;;;;;0.30;0.30;;;9.20;99.90;;;;;;5001357;28;20186;-81
2022/04/16 00:14:59;;;;;;;0.30;0.30;;;9.20;99.90;;;;;;5008256;28;20190;-82
2022/04/16 00:17:25;;;;;;;0.20;0.20;;;9.10;99.90;;;;;;5003320;28;20394;-81
2022/04/16 00:19:51;;;;;;;0.20;0.17;;;9.10;99.90;;;;;;5001996;28;20203;-82
2022/04/16 00:22:17;;;;;;;0.10;0.10;;;9.10;99.90;;;;;;5008203;28;20186;-81
2022/04/16 00:24:43;;;;;;;0.10;0.10;;;9.10;99.90;;;;;;5002274;28;20182;-82
2022/04/16 00:27:12;;;;;;;0.20;0.20;;;9.10;99.90;;;;;;5008041;28;20217;-82
2022/04/16 00:29:37;;;;;;;0.10;0.10;;;9.10;99.90;;;;;;5009460;28;20309;-82
2022/04/16 00:32:05;;;;;;;0.40;0.40;;;9.10;99.90;;;;;;4999589;28;20274;-82
2022/04/16 00:34:33;;;;;;;0.10;0.10;;;9.10;99.90;;;;;;5007733;28;20978;-82
2022/04/16 00:36:59;;;;;;;0.57;0.57;;;9.10;99.90;;;;;;5008491;28;20265;-82
2022/04/16 00:39:25;;;;;;;0.40;0.40;;;9.20;99.90;;;;;;5001794;28;20244;-81
2022/04/16 00:41:51;;;;;;;0.67;0.37;;;9.10;99.90;;;;;;5002116;28;20187;-82
2022/04/16 00:44:20;;;;;;;0.17;0.17;;;9.10;99.90;;;;;;5001770;28;20239;-82
2022/04/16 00:46:49;;;;;;;0.50;0.50;;;9.10;99.90;;;;;;5000790;28;20214;-82
2022/04/16 00:49:15;;;;;;;0.37;0.37;;;9.10;99.90;;;;;;5007473;28;20220;-82
2022/04/16 00:51:45;;;;;;;0.20;0.20;;;9.10;99.90;;;;;;5006798;28;20190;-82
2022/04/16 00:54:11;;;;;;;0.20;0.20;;;9.10;99.90;;;;;;5002546;28;20178;-82
2022/04/16 00:56:38;;;;;;;0.20;0.20;;;9.10;99.90;;;;;;5007109;28;20465;-82
2022/04/16 00:59:04;;;;;;;0.60;0.60;;;9.10;99.90;;;;;;5015925;28;20193;-82
2022/04/16 01:01:33;;;;;;;0.27;0.27;;;9.10;99.90;;;;;;5001069;28;20187;-82
2022/04/16 01:03:59;;;;;;;0.63;0.30;;;9.10;99.90;;;;;;5005728;28;20189;-82
2022/04/16 01:06:35;;;;;;;0.33;0.23;;;9.10;99.90;;;;;;5007383;28;20206;-82
2022/04/16 01:09:00;;;;;;;0.30;0.30;;;9.10;99.90;;;;;;5016479;28;20217;-82
2022/04/16 01:11:27;;;;;;;0.30;0.30;;;9.10;99.90;;;;;;5007192;28;21066;-82
2022/04/16 01:13:53;;;;;;;0.83;0.83;;;9.10;99.90;;;;;;5001031;28;20193;-82
2022/04/16 01:16:19;;;;;;;0.50;0.50;;;9.10;99.90;;;;;;5000081;28;20273;-82
2022/04/16 01:18:48;;;;;;;0.60;0.30;;;9.10;99.90;;;;;;5016718;28;20207;-82
2022/04/16 01:21:14;;;;;;;0.30;0.30;;;9.20;99.90;;;;;;5016771;28;20190;-82
2022/04/16 01:23:39;;;;;;;0.10;0.10;;;9.20;99.90;;;;;;4998530;28;21308;-82
2022/04/16 01:26:06;;;;;;;0.57;0.50;;;9.10;99.90;;;;;;5007781;28;20264;-82
2022/04/16 01:28:32;;;;;;;0.40;0.40;;;9.10;99.90;;;;;;5000201;28;20218;-82
2022/04/16 01:30:57;;;;;;;0.80;0.53;;;9.10;99.90;;;;;;5016989;28;20181;-83
2022/04/16 01:33:23;;;;;;;0.40;0.40;;;9.00;99.90;;;;;;5008211;28;20190;-82
2022/04/16 01:35:51;;;;;;;0.43;0.43;;;9.10;99.90;;;;;;5006149;28;20204;-82
2022/04/16 01:38:17;;;;;;;0.57;0.20;;;9.10;99.90;;;;;;5000799;28;20203;-82
2022/04/16 01:40:42;;;;;;;0.60;0.60;;;9.00;99.90;;;;;;5015834;28;20182;-82
2022/04/16 01:43:08;;;;;;;1.23;0.60;;;9.10;99.90;;;;;;5006215;28;20234;-82
2022/04/16 01:45:33;;;;;;;0.30;0.30;;;9.10;99.90;;;;;;5007190;28;20169;-82
2022/04/16 01:47:59;;;;;;;0.30;0.30;;;9.10;99.90;;;;;;5007313;28;20705;-82
2022/04/16 01:50:25;;;;;;;0.43;0.43;;;9.10;99.90;;;;;;5015729;28;20718;-82
2022/04/16 01:52:52;;;;;;;0.37;0.37;;;9.00;99.90;;;;;;5015823;28;20187;-82
2022/04/16 01:55:17;;;;;;;0.50;0.50;;;9.00;99.90;;;;;;5015136;28;20178;-82
2022/04/16 01:57:43;;;;;;;0.10;0.10;;;9.00;99.90;;;;;;5005596;28;20202;-82
2022/04/16 02:00:12;;;;;;;0.47;0.47;;;9.00;99.90;;;;;;5006987;28;20194;-82
2022/04/16 02:02:38;;;;;;;0.20;0.20;;;9.10;99.90;;;;;;5002688;28;20269;-82
2022/04/16 02:05:05;;;;;;;0.33;0.33;;;9.10;99.90;;;;;;5005695;28;20218;-82
2022/04/16 02:07:30;;;;;;;0.63;0.60;;;9.10;99.90;;;;;;5004929;28;20236;-82
2022/04/16 02:09:56;;;;;;;0.27;0.27;;;9.10;99.90;;;;;;5010182;28;20207;-82
2022/04/16 02:12:22;;;;;;;0.27;0.27;;;9.10;99.90;;;;;;5019155;28;20235;-82
2022/04/16 02:14:47;;;;;;;0.33;0.33;;;9.10;99.90;;;;;;5011723;28;20185;-82
2022/04/16 02:17:13;;;;;;;0.10;0.10;;;9.10;99.90;;;;;;5019596;28;20204;-82
2022/04/16 02:19:38;;;;;;;0.30;0.23;;;9.10;99.90;;;;;;5010222;28;20185;-82
2022/04/16 02:22:05;;;;;;;0.30;0.27;;;9.10;99.90;;;;;;5009139;28;20660;-82
2022/04/16 02:24:31;;;;;;;0.40;0.20;;;9.20;99.90;;;;;;5003605;28;20258;-82
2022/04/16 02:26:56;;;;;;;0.50;0.50;;;9.30;99.90;;;;;;5017654;28;20232;-81
2022/04/16 02:29:22;;;;;;;0.30;0.30;;;9.30;99.90;;;;;;5009665;28;20289;-82
2022/04/16 02:31:48;;;;;;;0.40;0.40;;;9.30;99.90;;;;;;5010179;28;20657;-82
2022/04/16 02:34:14;;;;;;;0.43;0.43;;;9.30;99.90;;;;;;5009465;28;20182;-82
2022/04/16 02:36:40;;;;;;;0.50;0.50;;;9.40;99.90;;;;;;5002248;28;20186;-82
2022/04/16 02:39:06;;;;;;;0.30;0.30;;;9.40;99.90;;;;;;5009450;28;20186;-81
2022/04/16 02:41:32;;;;;;;0.47;0.40;;;9.40;99.90;;;;;;5002200;28;20183;-82
2022/04/16 02:44:00;;;;;;;0.20;0.20;;;9.50;99.90;;;;;;5010085;28;20191;-81
2022/04/16 02:49:10;;;;;;;0.40;0.40;;;9.60;99.90;;;;;;5003757;28;20242;-82
2022/04/16 02:51:36;;;;;;;0.50;0.50;;;9.70;99.90;;;;;;5009021;28;20188;-82
2022/04/16 02:54:02;;;;;;;0.77;0.73;;;9.60;99.90;;;;;;5008410;28;20194;-82
2022/04/16 02:56:27;;;;;;;0.40;0.40;;;9.60;99.90;;;;;;5009791;28;20206;-82
2022/04/16 02:58:53;;;;;;;0.53;0.50;;;9.70;99.90;;;;;;5008972;28;20195;-82
2022/04/16 03:01:18;;;;;;;0.23;0.23;;;9.70;99.90;;;;;;5008739;28;20217;-83
2022/04/16 03:03:44;;;;;;;0.80;0.63;;;9.70;99.90;;;;;;5002960;28;20198;-82
2022/04/16 03:06:10;;;;;;;0.47;0.47;;;9.70;99.90;;;;;;5009127;28;20220;-82
2022/04/16 03:08:36;;;;;;;0.50;0.40;;;9.80;99.90;;;;;;5008686;28;20759;-82
2022/04/16 03:11:04;;;;;;;0.10;0.10;;;9.80;99.90;;;;;;5002756;28;20182;-83
2022/04/16 03:13:30;;;;;;;0.20;0.10;;;9.80;99.90;;;;;;5008252;28;20179;-82
2022/04/16 03:18:40;;;;;;;0.67;0.67;;;9.90;99.90;;;;;;5001863;28;20214;-82
2022/04/16 03:21:06;;;;;;;0.10;0.10;;;9.90;99.90;;;;;;5016458;28;20190;-81
2022/04/16 03:23:31;;;;;;;0.17;0.17;;;9.90;99.90;;;;;;5016464;28;20971;-82
2022/04/16 03:25:59;;;;;;;0.33;0.33;;;10.00;99.90;;;;;;5008574;28;20197;-82
2022/04/16 03:28:25;;;;;;;0.23;0.23;;;10.00;99.90;;;;;;5001905;28;20201;-82
2022/04/16 03:30:50;;;;;;;0.10;0.10;;;10.00;99.90;;;;;;5008273;28;20193;-82
2022/04/16 03:33:16;;;;;;;0.37;0.37;;;10.00;99.90;;;;;;5016924;28;20566;-82
2022/04/16 03:35:41;;;;;;;0.50;0.40;;;10.00;99.90;;;;;;5007754;28;20391;-82
2022/04/16 03:38:07;;;;;;;0.43;0.43;;;10.00;99.90;;;;;;5017189;28;20754;-82
2022/04/16 03:40:33;;;;;;;0.30;0.30;;;10.10;99.90;;;;;;5007653;28;20179;-83
2022/04/16 03:43:00;;;;;;;1.83;1.00;;;10.00;99.90;;;;;;5007544;28;20186;-82
2022/04/16 03:45:28;;;;;;;1.90;0.63;;;10.10;99.90;;;;;;5008612;28;20687;-82
2022/04/16 03:47:55;;;;;;;0.57;0.30;;;10.10;99.90;;;;;;5001149;28;20242;-82
2022/04/16 03:50:22;;;;;;;0.50;0.50;;;10.10;99.90;;;;;;5003229;28;20343;-81
2022/04/16 03:52:49;;;;;;;2.40;1.93;;;10.10;99.90;;;;;;4999511;28;20193;-82
2022/04/16 04:00:52;;;;;;;0.37;0.37;;;10.00;99.90;;;;;;5001456;28;20198;-82
2022/04/16 04:03:18;;;;;;;0.87;0.63;;;10.00;99.90;;;;;;5015763;28;20175;-81
2022/04/16 04:05:53;;;;;;;1.53;0.53;;;10.00;99.90;;;;;;5007020;28;20257;-82
2022/04/16 04:08:19;;;;;;;3.57;0.43;;;10.00;99.90;;;;;;5007470;28;20214;-82
2022/04/16 04:10:45;;;;;;;0.70;0.67;;;10.00;99.90;;;;;;5006738;28;20197;-82
2022/04/16 04:13:11;;;;;;;0.37;0.37;;;9.90;99.90;;;;;;5015725;28;20187;-82
2022/04/16 04:15:36;;;;;;;0.10;0.10;;;9.90;99.90;;;;;;5007522;28;20283;-82
2022/04/16 04:18:02;;;;;;;0.40;0.40;;;9.90;99.90;;;;;;5007391;28;20568;-82
2022/04/16 04:20:28;;;;;;;0.67;0.67;;;9.90;99.90;;;;;;5007106;28;20184;-82
2022/04/16 04:22:54;;;;;;;0.37;0.37;;;9.80;99.90;;;;;;5006557;28;20187;-82
2022/04/16 04:25:20;;;;;;;0.47;0.43;;;9.80;99.90;;;;;;5006881;28;20182;-82
2022/04/16 04:27:46;;;;;;;1.50;0.60;;;9.80;99.90;;;;;;5007681;28;20269;-82
2022/04/16 04:30:12;;;;;;;0.20;0.20;;;9.80;99.90;;;;;;5006608;28;20293;-82
2022/04/16 04:32:38;;;;;;;0.20;0.20;;;9.80;99.90;;;;;;5006247;28;20266;-82
2022/04/16 04:35:05;;;;;;;0.77;0.37;;;9.80;99.90;;;;;;5006645;28;20259;-82
2022/04/16 04:37:30;;;;;;;1.50;0.53;;;9.80;99.90;;;;;;5006718;28;20970;-82
2022/04/16 04:39:56;;;;;;;0.43;0.43;;;9.80;99.90;;;;;;5007282;28;20198;-82
2022/04/16 04:42:33;;;;;;;1.20;0.87;;;9.80;99.90;;;;;;5006460;28;20277;-81
2022/04/16 04:44:59;;;;;;;0.50;0.50;;;9.80;99.90;;;;;;5010411;28;20568;-82
2022/04/16 04:47:25;;;;;;;1.03;0.77;;;9.90;99.90;;;;;;5003352;28;20218;-82
2022/04/16 04:49:51;;;;;;;0.60;0.60;;;9.90;99.90;;;;;;5007640;28;20254;-82
2022/04/16 04:52:26;;;;;;;0.60;0.60;;;10.00;99.90;;;;;;5008801;28;20272;-81
2022/04/16 04:54:57;;;;;;;0.93;0.50;;;10.00;99.90;;;;;;5001574;28;20230;-81
2022/04/16 04:57:23;;;;;;;2.03;1.43;;;10.00;99.90;;;;;;5017147;28;20260;-82
2022/04/16 04:59:48;;;;;;;0.30;0.30;;;10.00;99.90;;;;;;4999430;28;20206;-82
2022/04/16 05:02:14;;;;;;;2.80;0.43;;;10.00;99.90;;;;;;5016554;28;20191;-82
2022/04/16 05:04:40;;;;;;;0.43;0.40;;;10.00;99.90;;;;;;5000078;28;20190;-81
2022/04/16 05:07:06;;;;;;;0.87;0.60;;;10.00;99.90;;;;;;5000072;28;20235;-82
2022/04/16 05:09:31;;;;;;;1.63;0.57;;;10.00;99.90;;;;;;5007524;28;20225;-82
2022/04/16 05:11:57;;;;;;;0.50;0.50;;;10.00;99.90;;;;;;5001300;28;20186;-82
2022/04/16 05:14:23;;;;;;;0.87;0.60;;;10.00;99.90;;;;;;5008077;28;20537;-82
2022/04/16 05:16:49;;;;;;;0.50;0.50;;;10.10;99.90;;;;;;5007044;28;20286;-82
2022/04/16 05:19:15;;;;;;;0.40;0.40;;;10.10;99.90;;;;;;5008903;28;20239;-82
2022/04/16 05:21:41;;;;;;;0.30;0.30;;;10.20;99.90;;;;;;5007399;28;20198;-81
2022/04/16 05:24:07;;;;;;;0.70;0.30;;;10.20;99.90;;;;;;5006701;28;20195;-82
2022/04/16 05:26:34;;;;;;;0.20;0.20;;;10.20;99.90;;;;;;5006686;28;20191;-82
2022/04/16 05:29:00;;;;;;;1.90;1.00;;;10.20;99.90;;;;;;5002941;28;20246;-82
2022/04/16 05:31:27;;;;;;;0.83;0.67;;;10.10;99.90;;;;;;5006353;28;20217;-83
2022/04/16 05:36:38;;;;;;;0.60;0.60;;;10.10;99.90;;;;;;5002081;28;20189;-82
2022/04/16 05:39:03;;;;;;;0.53;0.50;;;10.10;99.90;;;;;;5019500;28;20687;-81
2022/04/16 05:41:29;;;;;;;0.20;0.20;;;10.10;99.90;;;;;;5011632;28;20605;-82
2022/04/16 05:43:55;;;;;;;0.60;0.60;;;10.10;99.90;;;;;;5011525;28;20273;-82
2022/04/16 05:46:21;;;;;;;0.80;0.40;;;10.10;99.90;;;;;;5002701;28;20278;-82
2022/04/16 05:48:46;;;;;;;0.20;0.20;;;10.20;99.90;;;;;;5011218;28;20305;-81
2022/04/16 05:51:13;;;;;;;0.50;0.50;;;10.10;99.90;;;;;;5011420;28;20183;-82
2022/04/16 05:53:39;;;;;;;0.53;0.53;;;10.20;99.90;;;;;;5003829;28;20192;-82
2022/04/16 05:56:05;;;;;;;0.97;0.77;;;10.20;99.90;;;;;;5020506;28;20195;-81
2022/04/16 05:58:31;;;;;;;0.27;0.20;;;10.20;99.90;;;;;;5018537;28;20217;-82
2022/04/16 06:00:57;;;;;;;0.20;0.20;;;10.30;99.90;;;;;;5020027;28;20295;-82
2022/04/16 06:03:23;;;;;;;0.80;0.80;;;10.30;99.90;;;;;;5004798;28;20668;-82
2022/04/16 06:05:49;;;;;;;0.70;0.63;;;10.30;99.90;;;;;;5011255;28;20182;-82
2022/04/16 06:08:15;;;;;;;1.80;0.30;;;10.30;99.90;;;;;;5019917;28;20231;-82
2022/04/16 06:10:40;;;;;;;0.37;0.37;;;10.30;99.90;;;;;;5009300;28;20775;-81
2022/04/16 06:13:06;;;;;;;2.70;0.43;;;10.30;99.90;;;;;;5010870;28;20192;-82
2022/04/16 06:15:32;;;;;;;0.30;0.30;;;10.30;99.90;;;;;;5010283;28;20208;-82
2022/04/16 06:17:58;;;;;;;0.30;0.30;;;10.30;99.90;;;;;;5009892;28;20252;-82
2022/04/16 06:20:23;;;;;;;0.20;0.20;;;10.40;99.90;;;;;;5018820;28;20218;-84
2022/04/16 06:22:49;;;;;;;0.13;0.13;;;10.50;99.90;;;;;;5007667;28;20305;-84
2022/04/16 06:25:15;;;;;;;0.20;0.20;;;10.50;99.90;;;;;;5009146;28;20616;-84
2022/04/16 06:27:41;;;;;;;0.20;0.20;;;10.60;99.90;;;;;;5003047;28;20714;-84
2022/04/16 06:30:09;;;;;;;0.50;0.50;;;10.70;99.90;;;;;;5008888;28;20199;-85
2022/04/16 06:32:35;;;;;;;0.20;0.20;;;10.80;99.90;;;;;;5009150;28;20697;-85
2022/04/16 06:35:02;;;;;;;0.63;0.63;;;10.80;99.90;;;;;;5017128;28;20202;-84
2022/04/16 06:37:28;;;;;;;0.80;0.50;;;10.80;99.90;;;;;;5010432;28;20610;-84
2022/04/16 06:39:54;;;;;;;0.30;0.30;;;10.80;99.90;;;;;;5008689;28;20602;-84
2022/04/16 06:42:19;;;;;;;0.53;0.23;;;10.90;99.90;;;;;;5008545;28;20250;-84
2022/04/16 06:44:45;;;;;;;0.63;0.63;;;10.80;99.90;;;;;;5008514;28;20191;-84
2022/04/16 06:47:10;;;;;;;0.50;0.50;;;10.80;99.90;;;;;;5008131;28;20589;-84
2022/04/16 06:49:36;;;;;;;0.73;0.73;;;10.80;99.90;;;;;;5007923;28;20199;-84
2022/04/16 06:52:01;;;;;;;0.53;0.53;;;11.00;99.90;;;;;;5018428;28;20183;-85
2022/04/16 06:54:27;;;;;;;0.67;0.60;;;11.10;99.90;;;;;;5008782;28;20202;-84
2022/04/16 06:56:52;;;;;;;0.83;0.60;;;11.00;99.90;;;;;;5001501;28;20282;-85
2022/04/16 06:59:18;;;;;;;0.37;0.37;;;11.00;99.90;;;;;;5016522;28;20305;-84
2022/04/16 07:01:43;;;;;;;0.53;0.40;;;11.10;99.90;;;;;;5009257;28;20179;-84
2022/04/16 07:04:09;;;;;;;0.80;0.50;;;11.00;99.90;;;;;;5002676;28;20234;-84
2022/04/16 07:06:34;;;;;;;0.97;0.60;;;10.80;99.90;;;;;;5015403;28;20286;-84
2022/04/16 07:09:00;;;;;;;0.20;0.20;;;10.90;99.90;;;;;;5001008;28;20471;-85
2022/04/16 07:11:26;;;;;;;0.33;0.33;;;10.90;99.90;;;;;;5002093;28;20175;-84
2022/04/16 07:13:51;;;;;;;0.27;0.27;;;10.90;99.90;;;;;;5008921;28;20680;-85
2022/04/16 07:16:17;;;;;;;0.47;0.47;;;11.10;99.90;;;;;;5007917;28;20202;-84
2022/04/16 07:18:43;;;;;;;1.60;0.97;;;11.00;99.90;;;;;;5016156;28;20203;-84
2022/04/16 07:21:08;;;;;;;0.20;0.20;;;11.10;99.90;;;;;;5017527;28;20620;-85
2022/04/16 07:23:34;;;;;;;0.97;0.97;;;11.00;99.90;;;;;;5007661;28;20279;-84
2022/04/16 07:25:59;;;;;;;0.23;0.23;;;10.90;99.90;;;;;;5000974;28;20506;-84
2022/04/16 07:28:25;;;;;;;0.50;0.50;;;11.00;99.90;;;;;;5006893;28;20286;-84
2022/04/16 07:30:51;;;;;;;0.20;0.20;;;11.10;99.90;;;;;;4999893;28;20195;-84
2022/04/16 07:33:18;;;;;;;0.10;0.10;;;11.00;99.90;;;;;;5000488;28;20218;-84
2022/04/16 07:35:44;;;;;;;0.13;0.13;;;10.80;99.90;;;;;;5007681;28;20683;-85
2022/04/16 07:38:10;;;;;;;0.20;0.20;;;10.60;99.90;;;;;;5000258;28;21029;-84
2022/04/16 07:40:35;;;;;;;0.40;0.37;;;10.70;99.90;;;;;;5007505;28;20236;-85
2022/04/16 07:43:01;;;;;;;0.87;0.67;;;10.60;99.90;;;;;;5002146;28;20191;-84
2022/04/16 07:45:28;;;;;;;0.30;0.30;;;10.90;99.90;;;;;;5007083;28;20190;-85
2022/04/16 07:47:53;;;;;;;0.20;0.20;;;10.80;99.90;;;;;;4999071;28;20213;-85
2022/04/16 07:50:19;;;;;;;0.50;0.50;;;11.10;99.90;;;;;;5014804;28;21800;-84
2022/04/16 07:52:45;;;;;;;0.30;0.30;;;11.20;99.90;;;;;;4997998;28;20198;-85
2022/04/16 07:55:11;;;;;;;2.90;0.70;;;11.10;99.90;;;;;;5000383;28;20756;-85
2022/04/16 07:57:37;;;;;;;0.17;0.17;;;11.30;99.90;;;;;;5005027;28;20210;-85
2022/04/16 08:00:05;;;;;;;0.20;0.20;;;11.40;99.90;;;;;;5005749;28;20904;-83
2022/04/16 08:02:30;;;;;;;0.23;0.23;;;11.40;99.90;;;;;;5005222;28;20214;-85
2022/04/16 08:04:56;;;;;;;0.23;0.23;;;11.70;99.90;;;;;;5014086;28;20665;-85
2022/04/16 08:07:21;;;;;;;0.20;0.10;;;11.80;99.90;;;;;;4999214;28;20225;-85
2022/04/16 08:09:47;;;;;;;0.10;0.10;;;11.60;99.90;;;;;;5000090;28;20202;-85
2022/04/16 08:12:13;;;;;;;0.37;0.37;;;11.40;99.90;;;;;;5005795;28;20189;-85
2022/04/16 08:14:38;;;;;;;0.30;0.30;;;11.10;99.90;;;;;;5000429;28;20197;-85
2022/04/16 08:17:04;;;;;;;0.23;0.20;;;11.10;99.90;;;;;;5005016;28;20679;-85
2022/04/16 08:19:30;;;;;;;0.23;0.20;;;11.50;99.90;;;;;;4999926;28;20180;-83
2022/04/16 08:21:55;;;;;;;0.30;0.30;;;12.00;99.90;;;;;;5004382;28;20191;-83
2022/04/16 08:26:52;;;;;;;0.27;0.27;;;11.40;99.90;;;;;;5000178;28;20223;-83
2022/04/16 08:29:18;;;;;;;0.30;0.30;;;11.60;99.90;;;;;;4998965;28;20219;-84
2022/04/16 08:31:43;;;;;;;0.33;0.33;;;11.80;99.90;;;;;;5006024;28;20187;-83
2022/04/16 08:34:09;;;;;;;0.10;0.10;;;12.00;99.90;;;;;;5004320;28;20204;-84
2022/04/16 08:36:36;;;;;;;0.10;0.10;;;12.50;99.90;;;;;;5005849;28;20191;-85
2022/04/16 08:39:02;;;;;;;0.10;0.10;;;12.60;99.90;;;;;;5004040;28;20245;-82
2022/04/16 08:41:30;;;;;;;0.10;0.10;;;12.90;99.90;;;;;;5004390;28;20187;-80
2022/04/16 08:43:57;;;;;;;0.57;0.53;;;13.20;99.90;;;;;;4996058;28;20665;-80
2022/04/16 08:46:26;;;;;;;0.10;0.10;;;12.80;99.90;;;;;;4999176;28;20257;-80
2022/04/16 08:48:54;;;;;;;0.10;0.10;;;12.70;99.90;;;;;;4997130;28;20203;-80
2022/04/16 08:51:20;;;;;;;0.27;0.13;;;12.50;99.90;;;;;;5003110;28;20188;-80
2022/04/16 08:53:46;;;;;;;0.23;0.20;;;12.20;99.90;;;;;;4995463;28;20183;-80
2022/04/16 08:56:11;;;;;;;2.47;0.20;;;11.80;99.90;;;;;;5009671;28;20649;-80
2022/04/16 08:58:38;;;;;;;0.50;0.20;;;11.70;99.90;;;;;;5002540;28;20670;-80
2022/04/16 09:01:04;;;;;;;0.13;0.13;;;11.90;99.90;;;;;;5002494;28;21122;-80
2022/04/16 09:03:38;;;;;;;0.10;0.10;;;12.30;99.90;;;;;;5002452;28;20180;-80
2022/04/16 09:06:04;;;;;;;1.73;0.40;;;12.50;99.90;;;;;;4998352;28;20183;-80
2022/04/16 09:08:32;;;;;;;1.17;0.30;;;12.20;99.90;;;;;;5011093;28;20233;-79
2022/04/16 09:11:11;;;;;;;0.10;0.10;;;12.40;99.90;;;;;;5011496;28;20190;-80
2022/04/16 09:13:50;;;;;;;0.20;0.20;;;12.30;99.90;;;;;;4996028;28;20183;-80
2022/04/16 09:16:16;;;;;;;0.10;0.10;;;12.40;99.90;;;;;;4995605;28;20180;-80
2022/04/16 09:18:47;;;;;;;0.43;0.30;;;12.80;99.90;;;;;;5002877;28;20575;-80
2022/04/16 09:21:13;;;;;;;0.23;0.23;;;12.70;99.90;;;;;;4992555;28;20673;-80
2022/04/16 09:23:47;;;;;;;0.20;0.20;;;12.10;99.90;;;;;;5009053;28;20215;-80
2022/04/16 09:26:33;;;;;;;0.17;0.17;;;12.40;99.90;;;;;;4994974;28;20179;-79
2022/04/16 09:29:18;;;;;;;0.30;0.30;;;11.80;99.90;;;;;;5011785;28;20215;-80
2022/04/16 09:31:49;;;;;;;0.20;0.20;;;12.10;99.90;;;;;;5003234;28;20892;-80
2022/04/16 09:34:19;;;;;;;2.83;0.70;;;12.40;99.90;;;;;;5001190;28;20182;-80
2022/04/16 09:36:47;;;;;;;0.40;0.40;;;12.40;99.90;;;;;;5002961;28;20202;-80
2022/04/16 09:39:13;;;;;;;1.17;0.57;;;12.10;99.90;;;;;;4997807;28;20182;-80
2022/04/16 09:41:40;;;;;;;0.20;0.20;;;12.50;99.90;;;;;;5002468;28;20550;-80
2022/04/16 09:44:20;;;;;;;0.30;0.30;;;12.40;99.90;;;;;;4997883;28;20187;-80
2022/04/16 09:46:47;;;;;;;1.60;1.37;;;12.00;99.90;;;;;;4997882;28;20190;-80
2022/04/16 09:49:14;;;;;;;0.27;0.27;;;12.50;99.90;;;;;;4998455;28;20211;-81
2022/04/16 09:51:45;;;;;;;0.90;0.90;;;12.50;99.90;;;;;;5004282;28;20550;-80
2022/04/16 09:54:12;;;;;;;0.67;0.67;;;12.60;99.90;;;;;;4997785;28;20191;-80
2022/04/16 09:56:39;;;;;;;1.00;0.47;;;12.70;99.90;;;;;;4999165;28;20560;-80
2022/04/16 09:59:08;;;;;;;0.57;0.50;;;13.10;99.90;;;;;;5010206;28;20201;-80
2022/04/16 10:01:35;;;;;;;0.70;0.57;;;13.10;99.90;;;;;;5002567;28;20328;-83
2022/04/16 10:04:01;;;;;;;0.30;0.30;;;12.90;99.90;;;;;;4997111;28;20194;-82
2022/04/16 10:06:30;;;;;;;0.20;0.20;;;13.10;99.90;;;;;;5002143;28;20192;-83
2022/04/16 10:09:01;;;;;;;0.73;0.73;;;13.30;99.90;;;;;;4997637;28;20232;-82
2022/04/16 10:14:24;;;;;;;0.73;0.73;;;12.80;99.90;;;;;;4998699;28;20191;-84
2022/04/16 10:17:16;;;;;;;1.03;0.80;;;12.90;99.90;;;;;;4996352;28;20208;-84
2022/04/16 10:19:48;;;;;;;1.30;0.30;;;13.20;99.90;;;;;;4989617;28;20200;-84
2022/04/16 10:22:25;;;;;;;0.30;0.30;;;13.90;99.90;;;;;;4998430;28;20233;-85
2022/04/16 10:24:57;;;;;;;0.30;0.30;;;13.40;99.90;;;;;;5002831;28;20195;-84
2022/04/16 10:27:41;;;;;;;0.30;0.30;;;13.40;99.90;;;;;;5006798;28;20213;-84
2022/04/16 10:30:12;;;;;;;0.50;0.47;;;13.40;99.90;;;;;;5006361;28;20220;-84
2022/04/16 10:32:42;;;;;;;0.20;0.17;;;13.50;99.90;;;;;;5006964;28;20219;-85
2022/04/16 10:35:13;;;;;;;4.40;0.40;;;13.20;99.90;;;;;;5007661;28;20185;-84
2022/04/16 10:37:41;;;;;;;0.13;0.13;;;13.30;99.90;;;;;;5007196;28;20217;-84
2022/04/16 10:40:21;;;;;;;1.37;1.27;;;13.00;99.90;;;;;;5005970;28;20185;-82
2022/04/16 10:42:57;;;;;;;0.50;0.50;;;13.10;99.90;;;;;;5007117;28;20185;-82
2022/04/16 10:45:22;;;;;;;0.20;0.20;;;13.30;99.90;;;;;;5015625;28;20191;-83
2022/04/16 10:47:54;;;;;;;0.30;0.30;;;13.60;99.90;;;;;;4999677;28;20213;-82
2022/04/16 10:50:22;;;;;;;0.20;0.20;;;13.70;99.90;;;;;;5001087;28;20220;-85
2022/04/16 10:52:54;;;;;;;0.30;0.30;;;13.50;99.90;;;;;;5001069;28;20186;-84
2022/04/16 10:55:30;;;;;;;0.50;0.50;;;13.60;99.90;;;;;;5000091;28;21082;-85
2022/04/16 10:58:00;;;;;;;0.37;0.37;;;13.90;99.90;;;;;;5000171;28;20201;-84
2022/04/16 11:00:41;;;;;;;0.40;0.40;;;14.00;99.90;;;;;;5000774;28;20207;-85
2022/04/16 11:03:17;;;;;;;0.30;0.30;;;13.40;99.90;;;;;;5007914;28;20215;-84
2022/04/16 11:05:43;;;;;;;0.30;0.30;;;13.70;99.90;;;;;;4999364;28;20185;-85
2022/04/16 11:08:15;;;;;;;0.20;0.20;;;13.60;99.90;;;;;;5007300;28;20227;-84
2022/04/16 11:10:41;;;;;;;0.43;0.43;;;13.70;99.90;;;;;;5001544;28;20284;-85
2022/04/16 11:13:08;;;;;;;0.90;0.90;;;13.60;99.90;;;;;;4999546;28;20182;-85
2022/04/16 11:15:34;;;;;;;0.10;0.10;;;13.60;99.90;;;;;;5016279;28;20185;-85
2022/04/16 11:18:01;;;;;;;0.23;0.20;;;14.00;99.90;;;;;;5001674;28;20264;-84
2022/04/16 11:20:28;;;;;;;0.60;0.33;;;13.70;99.90;;;;;;5006514;28;20236;-84
2022/04/16 11:22:54;;;;;;;0.30;0.30;;;14.10;99.90;;;;;;5001584;28;20215;-84
2022/04/16 11:25:24;;;;;;;0.30;0.20;;;14.00;99.90;;;;;;5007307;28;20208;-84
2022/04/16 11:36:09;;;;;;;0.20;0.20;;;13.90;99.90;;;;;;5001940;28;20194;-84
2022/04/16 11:38:40;;;;;;;0.40;0.33;;;14.30;99.90;;;;;;5006856;28;20750;-85
2022/04/16 11:41:09;;;;;;;0.20;0.20;;;14.30;99.90;;;;;;5000681;28;20189;-84
2022/04/16 11:43:38;;;;;;;0.40;0.40;;;14.30;99.90;;;;;;5015414;28;20265;-85
2022/04/16 11:46:11;;;;;;;0.60;0.60;;;14.60;99.90;;;;;;4999949;28;20180;-85
2022/04/16 11:48:37;;;;;;;0.63;0.30;;;14.80;99.90;;;;;;5000842;28;20211;-84
2022/04/16 11:51:04;;;;;;;0.20;0.20;;;14.90;99.90;;;;;;5002113;28;20283;-84
2022/04/16 11:53:30;;;;;;;0.33;0.33;;;14.60;99.90;;;;;;5005205;28;20722;-84
2022/04/16 11:55:56;;;;;;;0.30;0.30;;;15.00;99.90;;;;;;5001548;28;20191;-84
2022/04/16 11:58:29;;;;;;;0.20;0.20;;;14.80;99.90;;;;;;5006987;28;20213;-84
2022/04/16 12:00:58;;;;;;;0.10;0.10;;;15.00;99.90;;;;;;5015306;28;20190;-84
2022/04/16 12:03:40;;;;;;;0.10;0.10;;;15.20;99.90;;;;;;5005804;28;20186;-84
2022/04/16 12:06:13;;;;;;;0.10;0.10;;;14.90;99.90;;;;;;5006388;28;20179;-84
2022/04/16 12:08:48;;;;;;;0.40;0.33;;;14.80;99.90;;;;;;4999388;28;20261;-84
2022/04/16 12:11:17;;;;;;;0.40;0.40;;;14.90;99.90;;;;;;5006975;28;20229;-84
2022/04/16 12:13:43;;;;;;;0.20;0.20;;;15.20;99.90;;;;;;4998275;28;21002;-84
2022/04/16 12:16:13;;;;;;;1.50;0.27;;;15.20;99.90;;;;;;5005402;28;20193;-83
2022/04/16 12:18:41;;;;;;;0.33;0.33;;;15.10;99.90;;;;;;5001236;28;20241;-84
2022/04/16 12:21:09;;;;;;;2.63;0.60;;;15.20;99.90;;;;;;5007203;28;20199;-83
2022/04/16 12:23:38;;;;;;;0.50;0.50;;;15.00;99.90;;;;;;5005934;28;20198;-84
2022/04/16 12:26:08;;;;;;;0.20;0.20;;;14.90;99.90;;;;;;5005276;28;20201;-84
2022/04/16 12:28:43;;;;;;;0.53;0.30;;;15.00;99.90;;;;;;4997880;28;20293;-84
2022/04/16 12:31:09;;;;;;;0.10;0.10;;;14.70;99.90;;;;;;4999885;28;20194;-84
2022/04/16 12:33:35;;;;;;;0.10;0.10;;;14.70;99.90;;;;;;5000483;28;20192;-84
2022/04/16 12:36:01;;;;;;;0.20;0.20;;;14.40;99.90;;;;;;5005886;28;20197;-83
2022/04/16 12:38:26;;;;;;;0.10;0.10;;;14.70;99.90;;;;;;4998444;28;20222;-84
2022/04/16 12:41:12;;;;;;;0.30;0.30;;;14.90;99.90;;;;;;5017417;28;20199;-84
2022/04/16 12:43:38;;;;;;;0.30;0.30;;;14.90;99.90;;;;;;5000642;28;20271;-84
2022/04/16 12:46:04;;;;;;;0.10;0.10;;;14.90;99.90;;;;;;5001190;28;20187;-83
2022/04/16 12:48:29;;;;;;;0.10;0.10;;;15.10;99.90;;;;;;5014917;28;20209;-82
2022/04/16 12:50:55;;;;;;;0.10;0.10;;;15.50;99.90;;;;;;5006858;28;20276;-83
2022/04/16 12:53:20;;;;;;;0.20;0.20;;;15.40;99.90;;;;;;5013453;28;20192;-83
2022/04/16 12:55:46;;;;;;;0.30;0.30;;;15.30;99.90;;;;;;5008677;28;20206;-83
2022/04/16 12:58:12;;;;;;;0.10;0.10;;;15.70;99.90;;;;;;5006818;28;20203;-83
2022/04/16 13:00:37;;;;;;;0.30;0.30;;;15.60;99.90;;;;;;5007977;28;21195;-82
2022/04/16 13:03:03;;;;;;;0.30;0.30;;;15.30;99.90;;;;;;4999100;28;20187;-82
2022/04/16 13:05:29;;;;;;;0.10;0.10;;;15.20;99.90;;;;;;5014102;28;20190;-83
2022/04/16 13:07:58;;;;;;;0.20;0.20;;;15.40;99.90;;;;;;5006108;28;20226;-83
2022/04/16 13:10:23;;;;;;;0.20;0.20;;;15.20;99.90;;;;;;5006632;28;20291;-82
2022/04/16 13:12:49;;;;;;;0.20;0.20;;;15.40;99.90;;;;;;5006157;28;20666;-83
2022/04/16 13:15:14;;;;;;;0.20;0.20;;;15.20;99.90;;;;;;5006823;28;20200;-83
2022/04/16 13:17:40;;;;;;;0.20;0.20;;;15.30;99.90;;;;;;5004038;28;20204;-83